Oshima Airport
RJTO : now visible

Airfield :











YOU CAN JOIN US ON...

 
LOGIN :

Register | Disclaimer

   EN    FR    IT 

 









Legend :    VFR   Marginal VFR   IFR   Intensive IFR   Very Intensive IFR
Visi :
Ceiling :
>= 8 km
>= 3000ft
5 to 8 km
1000 to 3000 ft
1500m to 5 km
500 to 1000 ft
800 to 1500m
200 to 500 ft
< 800m
< 200 ft
Symbols :   Thunderstorms  Fog  Heavy snow  Heavy precipitations  Wind > 20 kt






- Airport Elevation : 130 ft
- IATA code : OIM


RJTO - Oshima

CURRENT METAR :
  • 230800Z 20009KT 9999 FEW020 BKN/// 22/19 Q1011

EXPIRED METARs :
  • 230700Z 21013KT 9999 FEW030 SCT130 BKN/// 22/18 Q1011
  • 230600Z 20010KT 9999 FEW030 BKN130 BKN/// 23/18 Q1011
  • 230500Z 21010KT 9999 FEW020 BKN100 23/18 Q1012

TAF N/A
RJJJ FIR / Asia



MET'MAP, your aeronautical weather chart ! - Copyright ORBIFLY December 2007 - Disclaimer

ORBIFLY MET'MAP TEAM :

Programming & Development : Alexandra Zaïnal
Original concept : Baudouin d'Aumeries
Technical & hardware support : Manuel Goepfert
Assistance : Marc-Olivier Méhu




SOURCES & CREDITS :

   NOAA       Earth
Advisory